createdAt,value
2019-03-17T00:00:24.141Z,41
2019-03-17T00:00:50.148Z,41
2019-03-17T00:01:16.151Z,41
2019-03-17T00:01:42.218Z,41
2019-03-17T00:02:08.143Z,41
2019-03-17T00:02:34.163Z,41
2019-03-17T00:03:00.158Z,41
2019-03-17T00:03:26.160Z,41
2019-03-17T00:03:52.148Z,41
2019-03-17T00:04:18.150Z,41
2019-03-17T00:04:44.164Z,41
2019-03-17T00:05:10.214Z,41
2019-03-17T00:05:36.166Z,41
2019-03-17T00:06:02.165Z,41
2019-03-17T00:06:28.151Z,41
2019-03-17T00:06:54.168Z,42
2019-03-17T00:07:20.163Z,41
2019-03-17T00:07:46.166Z,41
2019-03-17T00:08:12.151Z,41
2019-03-17T00:08:38.162Z,41
2019-03-17T00:09:04.234Z,41
2019-03-17T00:09:30.166Z,41
2019-03-17T00:09:56.170Z,41
2019-03-17T00:10:22.156Z,41
2019-03-17T00:10:48.159Z,41
2019-03-17T00:11:14.162Z,41
2019-03-17T00:11:40.166Z,41
2019-03-17T00:12:06.307Z,41
2019-03-17T00:12:32.172Z,41
2019-03-17T00:12:58.158Z,41
2019-03-17T00:13:24.173Z,41
2019-03-17T00:13:50.164Z,42
2019-03-17T00:14:16.178Z,41
2019-03-17T00:14:42.169Z,41
2019-03-17T00:15:08.235Z,41
2019-03-17T00:15:34.181Z,41
2019-03-17T00:16:00.215Z,41
2019-03-17T00:16:26.182Z,41
2019-03-17T00:16:52.167Z,41
2019-03-17T00:17:18.176Z,41
2019-03-17T00:17:44.172Z,41
2019-03-17T00:18:10.248Z,41
2019-03-17T00:18:36.183Z,41
2019-03-17T00:19:02.186Z,41
2019-03-17T00:19:28.170Z,41
2019-03-17T00:19:54.186Z,41
2019-03-17T00:20:20.176Z,41
2019-03-17T00:20:46.179Z,41
2019-03-17T00:21:12.193Z,41
2019-03-17T00:21:38.176Z,41
2019-03-17T00:22:04.332Z,41
2019-03-17T00:22:30.187Z,41
2019-03-17T00:22:56.189Z,41
2019-03-17T00:23:22.190Z,41
2019-03-17T00:23:48.177Z,41
2019-03-17T00:24:14.178Z,41
2019-03-17T00:24:40.178Z,41
2019-03-17T00:25:06.193Z,41
2019-03-17T00:25:32.252Z,42
2019-03-17T00:25:58.221Z,41
2019-03-17T00:26:24.194Z,41
2019-03-17T00:26:50.182Z,41
2019-03-17T00:27:16.192Z,41
2019-03-17T00:27:42.182Z,41
2019-03-17T00:28:08.207Z,41
2019-03-17T00:28:34.192Z,41
2019-03-17T00:29:00.258Z,41
2019-03-17T00:29:26.202Z,41
2019-03-17T00:29:52.197Z,41
2019-03-17T00:30:18.185Z,41
2019-03-17T00:30:44.201Z,41
2019-03-17T00:31:10.188Z,41
2019-03-17T00:31:36.202Z,41
2019-03-17T00:32:02.189Z,41
2019-03-17T00:32:28.188Z,41
2019-03-17T00:32:54.213Z,41
2019-03-17T00:33:20.188Z,41
2019-03-17T00:33:46.203Z,41
2019-03-17T00:34:12.191Z,41
2019-03-17T00:34:38.192Z,41
2019-03-17T00:35:04.282Z,41
2019-03-17T00:35:30.209Z,41
2019-03-17T00:35:56.207Z,41
2019-03-17T00:36:22.208Z,41
2019-03-17T00:36:48.363Z,41
2019-03-17T00:37:14.208Z,40
2019-03-17T00:37:40.196Z,41
2019-03-17T00:38:06.195Z,41
2019-03-17T00:38:32.210Z,41
2019-03-17T00:38:58.473Z,41
2019-03-17T00:39:24.922Z,41
2019-03-17T00:39:50.200Z,41
2019-03-17T00:40:16.220Z,41
2019-03-17T00:40:42.202Z,41
2019-03-17T00:41:08.200Z,41
2019-03-17T00:41:34.204Z,41
2019-03-17T00:42:00.217Z,41
2019-03-17T00:42:26.279Z,41
2019-03-17T00:42:52.216Z,41
2019-03-17T00:43:18.214Z,41
2019-03-17T00:43:44.221Z,41
2019-03-17T00:44:10.212Z,41
2019-03-17T00:44:36.222Z,41
2019-03-17T00:45:02.208Z,41
2019-03-17T00:45:28.211Z,41
2019-03-17T00:45:54.219Z,41
2019-03-17T00:46:20.219Z,41
2019-03-17T00:46:46.224Z,41
2019-03-17T00:47:12.211Z,41
2019-03-17T00:47:38.208Z,41
2019-03-17T00:48:04.210Z,41
2019-03-17T00:48:30.211Z,41
2019-03-17T00:48:56.231Z,41
2019-03-17T00:49:22.236Z,41
2019-03-17T00:49:48.216Z,41
2019-03-17T00:50:14.229Z,41
2019-03-17T00:50:40.209Z,41
2019-03-17T00:51:06.227Z,41
2019-03-17T00:51:32.214Z,41
2019-03-17T00:51:58.226Z,41
2019-03-17T00:52:24.297Z,41
2019-03-17T00:52:50.228Z,41
2019-03-17T00:53:16.234Z,41
2019-03-17T00:53:42.245Z,41
2019-03-17T00:54:08.222Z,41
2019-03-17T00:54:34.223Z,41
2019-03-17T00:55:00.222Z,41
2019-03-17T00:55:26.226Z,41
2019-03-17T00:55:52.297Z,41
2019-03-17T00:56:18.222Z,41
2019-03-17T00:56:44.236Z,41
2019-03-17T00:57:10.223Z,41
2019-03-17T00:57:36.239Z,41
2019-03-17T00:58:02.225Z,41
2019-03-17T00:58:28.232Z,41
2019-03-17T00:58:54.300Z,41
2019-03-17T00:59:20.241Z,41
2019-03-17T00:59:46.242Z,42
2019-03-17T01:00:12.241Z,41
2019-03-17T01:00:38.225Z,41
2019-03-17T01:01:04.242Z,42
2019-03-17T01:01:30.228Z,41
2019-03-17T01:01:56.227Z,41
2019-03-17T01:02:22.237Z,41
2019-03-17T01:02:48.231Z,41
2019-03-17T01:03:14.317Z,41
2019-03-17T01:03:40.249Z,41
2019-03-17T01:04:06.251Z,41
2019-03-17T01:04:32.373Z,42
2019-03-17T01:04:58.231Z,41
2019-03-17T01:05:24.230Z,42
2019-03-17T01:05:50.233Z,41
2019-03-17T01:06:16.247Z,41
2019-03-17T01:06:42.254Z,41
2019-03-17T01:07:08.305Z,41
2019-03-17T01:07:34.255Z,41
2019-03-17T01:08:00.239Z,41
2019-03-17T01:08:26.251Z,41
2019-03-17T01:08:52.244Z,41
2019-03-17T01:09:18.244Z,41
2019-03-17T01:09:44.256Z,41
2019-03-17T01:10:10.256Z,41
2019-03-17T01:10:36.255Z,41
2019-03-17T01:11:02.256Z,41
2019-03-17T01:11:28.247Z,41
2019-03-17T01:11:54.257Z,41
2019-03-17T01:12:20.249Z,41
2019-03-17T01:12:46.747Z,40
2019-03-17T01:13:12.246Z,41
2019-03-17T01:13:38.258Z,41
2019-03-17T01:14:04.324Z,41
2019-03-17T01:14:30.264Z,41
2019-03-17T01:14:56.262Z,41
2019-03-17T01:15:22.249Z,41
2019-03-17T01:15:48.248Z,41
2019-03-17T01:16:14.255Z,41
2019-03-17T01:16:40.264Z,41
2019-03-17T01:17:06.975Z,41
2019-03-17T01:17:32.825Z,41
2019-03-17T01:17:58.253Z,41
2019-03-17T01:18:24.270Z,41
2019-03-17T01:18:50.258Z,41
2019-03-17T01:19:16.270Z,41
2019-03-17T01:19:42.253Z,41
2019-03-17T01:20:08.262Z,41
2019-03-17T01:20:34.337Z,41
2019-03-17T01:21:00.454Z,41
2019-03-17T01:21:26.271Z,41
2019-03-17T01:21:52.748Z,41
2019-03-17T01:22:18.261Z,41
2019-03-17T01:22:44.262Z,41
2019-03-17T01:23:10.256Z,41
2019-03-17T01:23:36.272Z,41
2019-03-17T01:24:02.289Z,41
2019-03-17T01:24:28.414Z,41
2019-03-17T01:24:54.273Z,41
2019-03-17T01:25:20.285Z,40
2019-03-17T01:25:46.940Z,41
2019-03-17T01:26:12.263Z,41
2019-03-17T01:26:38.265Z,41
2019-03-17T01:27:04.607Z,41
2019-03-17T01:27:30.620Z,41
2019-03-17T01:27:56.342Z,41
2019-03-17T01:28:22.282Z,42
2019-03-17T01:28:48.266Z,41
2019-03-17T01:29:14.285Z,41
2019-03-17T01:29:40.267Z,41
2019-03-17T01:30:06.267Z,41
2019-03-17T01:30:32.285Z,41
2019-03-17T01:30:58.350Z,41
2019-03-17T01:31:24.294Z,41
2019-03-17T01:31:50.274Z,41
2019-03-17T01:32:16.287Z,42
2019-03-17T01:32:42.274Z,41
2019-03-17T01:33:08.279Z,41
2019-03-17T01:33:34.272Z,41
2019-03-17T01:34:00.608Z,41
2019-03-17T01:34:26.302Z,41
2019-03-17T01:34:52.359Z,41
2019-03-17T01:35:18.277Z,41
2019-03-17T01:35:44.293Z,41
2019-03-17T01:36:10.282Z,41
2019-03-17T01:36:36.292Z,41
2019-03-17T01:37:02.278Z,41
2019-03-17T01:37:28.286Z,41
2019-03-17T01:37:54.296Z,41
2019-03-17T01:38:20.300Z,41
2019-03-17T01:38:46.296Z,41
2019-03-17T01:39:12.295Z,41
2019-03-17T01:39:38.289Z,41
2019-03-17T01:40:04.296Z,41
2019-03-17T01:40:30.281Z,41
2019-03-17T01:40:56.282Z,41
2019-03-17T01:41:22.290Z,42
2019-03-17T01:41:48.285Z,41
2019-03-17T01:42:14.368Z,41
2019-03-17T01:42:40.308Z,41
2019-03-17T01:43:06.306Z,41
2019-03-17T01:43:32.331Z,41
2019-03-17T01:43:58.289Z,41
2019-03-17T01:44:24.291Z,41
2019-03-17T01:44:50.299Z,41
2019-03-17T01:45:16.303Z,41
2019-03-17T01:45:42.310Z,41
2019-03-17T01:46:08.291Z,41
2019-03-17T01:46:34.306Z,42
2019-03-17T01:47:00.298Z,41
2019-03-17T01:47:26.312Z,41
2019-03-17T01:47:52.294Z,42
2019-03-17T01:48:18.300Z,41
2019-03-17T01:48:44.380Z,41
2019-03-17T01:49:10.312Z,41
2019-03-17T01:49:36.309Z,41
2019-03-17T01:50:02.297Z,41
2019-03-17T01:50:28.307Z,41
2019-03-17T01:50:54.303Z,41
2019-03-17T01:51:20.313Z,41
2019-03-17T01:51:46.316Z,41
2019-03-17T01:52:12.319Z,41
2019-03-17T01:52:38.307Z,41
2019-03-17T01:53:04.312Z,41
2019-03-17T01:53:30.300Z,41
2019-03-17T01:53:56.305Z,41
2019-03-17T01:54:22.317Z,41
2019-03-17T01:54:48.302Z,41
2019-03-17T01:55:14.325Z,41
2019-03-17T01:55:40.306Z,41
2019-03-17T01:56:06.320Z,41
2019-03-17T01:56:32.308Z,41
2019-03-17T01:56:58.319Z,41
2019-03-17T01:57:24.388Z,41
2019-03-17T01:57:50.328Z,41
2019-03-17T01:58:16.323Z,41
2019-03-17T01:58:42.309Z,41
2019-03-17T01:59:08.311Z,41
2019-03-17T01:59:34.312Z,41
2019-03-17T02:00:00.323Z,41
2019-03-17T02:00:26.395Z,41
2019-03-17T02:00:52.324Z,41
2019-03-17T02:01:18.314Z,41
2019-03-17T02:01:44.329Z,41
2019-03-17T02:02:10.312Z,41
2019-03-17T02:02:36.313Z,41
2019-03-17T02:03:02.330Z,41
2019-03-17T02:03:28.383Z,41
2019-03-17T02:03:54.331Z,41
2019-03-17T02:04:20.317Z,41
2019-03-17T02:04:46.338Z,41
2019-03-17T02:05:12.319Z,41
2019-03-17T02:05:38.317Z,41
2019-03-17T02:06:04.321Z,41
2019-03-17T02:06:30.335Z,41
2019-03-17T02:06:56.337Z,41
2019-03-17T02:07:22.334Z,41
2019-03-17T02:07:48.324Z,41
2019-03-17T02:08:14.338Z,41
2019-03-17T02:08:40.324Z,41
2019-03-17T02:09:06.342Z,41
2019-03-17T02:09:33.074Z,41
2019-03-17T02:09:58.327Z,41
2019-03-17T02:10:24.338Z,41
2019-03-17T02:10:50.345Z,41
2019-03-17T02:11:16.343Z,41
2019-03-17T02:11:42.330Z,41
2019-03-17T02:12:08.330Z,41
2019-03-17T02:12:34.336Z,41
2019-03-17T02:13:00.412Z,41
2019-03-17T02:13:26.345Z,41
2019-03-17T02:13:52.344Z,41
2019-03-17T02:14:18.332Z,41
2019-03-17T02:14:44.346Z,41
2019-03-17T02:15:10.334Z,41
2019-03-17T02:15:36.351Z,41
2019-03-17T02:16:02.344Z,41
2019-03-17T02:16:28.400Z,41
2019-03-17T02:16:54.359Z,41
2019-03-17T02:17:20.336Z,41
2019-03-17T02:17:46.351Z,41
2019-03-17T02:18:12.336Z,41
2019-03-17T02:18:38.338Z,41
2019-03-17T02:19:04.339Z,41
2019-03-17T02:19:30.353Z,41
2019-03-17T02:19:56.352Z,41
2019-03-17T02:20:22.360Z,42
2019-03-17T02:20:48.342Z,42
2019-03-17T02:21:14.356Z,41
2019-03-17T02:21:40.340Z,41
2019-03-17T02:22:06.421Z,41
2019-03-17T02:22:32.358Z,41
2019-03-17T02:22:58.344Z,41
2019-03-17T02:23:24.359Z,41
2019-03-17T02:23:50.348Z,41
2019-03-17T02:24:16.361Z,41
2019-03-17T02:24:42.344Z,41
2019-03-17T02:25:08.348Z,41
2019-03-17T02:25:34.368Z,41
2019-03-17T02:26:00.362Z,41
2019-03-17T02:26:26.425Z,41
2019-03-17T02:26:52.413Z,42
2019-03-17T02:27:18.349Z,42
2019-03-17T02:27:44.364Z,42
2019-03-17T02:28:10.346Z,42
2019-03-17T02:28:36.376Z,42
2019-03-17T02:29:02.356Z,42
2019-03-17T02:29:28.351Z,41
2019-03-17T02:29:54.373Z,41
2019-03-17T02:30:20.350Z,41
2019-03-17T02:30:46.368Z,41
2019-03-17T02:31:12.971Z,41
2019-03-17T02:31:38.355Z,41
2019-03-17T02:32:04.413Z,41
2019-03-17T02:32:30.536Z,41
2019-03-17T02:32:56.369Z,41
2019-03-17T02:33:22.374Z,41
2019-03-17T02:33:48.353Z,41
2019-03-17T02:34:14.361Z,41
2019-03-17T02:34:40.360Z,41
2019-03-17T02:35:06.380Z,41
2019-03-17T02:35:32.373Z,41
2019-03-17T02:35:58.360Z,41
2019-03-17T02:36:24.379Z,41
2019-03-17T02:36:50.369Z,42
2019-03-17T02:37:16.380Z,41
2019-03-17T02:37:42.365Z,41
2019-03-17T02:38:08.380Z,41
2019-03-17T02:38:34.384Z,41
2019-03-17T02:39:00.382Z,41
2019-03-17T02:39:26.385Z,41
2019-03-17T02:39:52.390Z,41
2019-03-17T02:40:18.365Z,41
2019-03-17T02:40:44.368Z,41
2019-03-17T02:41:10.372Z,40
2019-03-17T02:41:36.396Z,41
2019-03-17T02:42:02.449Z,41
2019-03-17T02:42:28.370Z,41
2019-03-17T02:42:54.389Z,41
2019-03-17T02:43:20.374Z,41
2019-03-17T02:43:46.388Z,41
2019-03-17T02:44:12.373Z,41
2019-03-17T02:44:38.394Z,41
2019-03-17T02:45:04.449Z,41
2019-03-17T02:45:30.389Z,41
2019-03-17T02:45:56.391Z,41
2019-03-17T02:46:22.379Z,41
2019-03-17T02:46:48.379Z,41
2019-03-17T02:47:14.552Z,41
2019-03-17T02:47:40.391Z,41
2019-03-17T02:48:06.465Z,41
2019-03-17T02:48:32.394Z,41
2019-03-17T02:48:58.382Z,41
2019-03-17T02:49:24.398Z,41
2019-03-17T02:49:50.379Z,41
2019-03-17T02:50:16.395Z,41
2019-03-17T02:50:42.383Z,41
2019-03-17T02:51:08.384Z,41
2019-03-17T02:51:34.398Z,41
2019-03-17T02:52:00.400Z,41
2019-03-17T02:52:26.400Z,41
2019-03-17T02:52:52.401Z,40
2019-03-17T02:53:18.385Z,41
2019-03-17T02:53:44.408Z,41
2019-03-17T02:54:10.385Z,41
2019-03-17T02:54:36.393Z,41
2019-03-17T02:55:02.467Z,41
2019-03-17T02:55:28.391Z,41
2019-03-17T02:55:54.403Z,41
2019-03-17T02:56:20.390Z,41
2019-03-17T02:56:46.406Z,41
2019-03-17T02:57:12.394Z,41
2019-03-17T02:57:38.392Z,41
2019-03-17T02:58:04.708Z,41
2019-03-17T02:58:30.415Z,41
2019-03-17T02:58:56.428Z,41
2019-03-17T02:59:22.411Z,42
2019-03-17T02:59:48.394Z,41
2019-03-17T03:00:14.392Z,41
2019-03-17T03:00:40.406Z,41
2019-03-17T03:01:06.481Z,42
2019-03-17T03:01:32.883Z,42
2019-03-17T03:01:58.455Z,42
2019-03-17T03:02:24.415Z,42
2019-03-17T03:02:50.433Z,42
2019-03-17T03:03:16.408Z,42
2019-03-17T03:03:42.420Z,42
2019-03-17T03:04:08.466Z,42
2019-03-17T03:04:34.417Z,42
2019-03-17T03:05:00.401Z,42
2019-03-17T03:05:26.418Z,42
2019-03-17T03:05:52.401Z,42
2019-03-17T03:06:18.650Z,42
2019-03-17T03:06:44.420Z,42
2019-03-17T03:07:10.423Z,42
2019-03-17T03:07:36.422Z,42
2019-03-17T03:08:02.421Z,42
2019-03-17T03:08:28.406Z,42
2019-03-17T03:08:54.427Z,42
2019-03-17T03:09:20.407Z,42
2019-03-17T03:09:46.413Z,42
2019-03-17T03:10:12.420Z,42
2019-03-17T03:10:38.478Z,42
2019-03-17T03:11:04.427Z,42
2019-03-17T03:11:30.414Z,42
2019-03-17T03:11:56.429Z,42
2019-03-17T03:12:22.412Z,42
2019-03-17T03:12:48.413Z,42
2019-03-17T03:13:14.423Z,42
2019-03-17T03:13:40.492Z,42
2019-03-17T03:14:06.431Z,42
2019-03-17T03:14:32.430Z,42
2019-03-17T03:14:58.418Z,42
2019-03-17T03:15:24.432Z,42
2019-03-17T03:15:50.418Z,42
2019-03-17T03:16:16.467Z,42
2019-03-17T03:16:42.435Z,42
2019-03-17T03:17:08.424Z,41
2019-03-17T03:17:34.437Z,42
2019-03-17T03:18:00.418Z,42
2019-03-17T03:18:26.436Z,42
2019-03-17T03:18:52.423Z,42
2019-03-17T03:19:18.426Z,42
2019-03-17T03:19:44.437Z,42
2019-03-17T03:20:10.440Z,42
2019-03-17T03:20:36.640Z,42
2019-03-17T03:21:02.655Z,42
2019-03-17T03:21:28.430Z,42
2019-03-17T03:21:54.428Z,42
2019-03-17T03:22:20.440Z,42
2019-03-17T03:22:46.510Z,42
2019-03-17T03:23:12.442Z,42
2019-03-17T03:23:38.426Z,42
2019-03-17T03:24:04.448Z,42
2019-03-17T03:24:30.434Z,42
2019-03-17T03:24:56.429Z,42
2019-03-17T03:25:22.450Z,42
2019-03-17T03:25:48.499Z,42
2019-03-17T03:26:14.451Z,42
2019-03-17T03:26:40.436Z,42
2019-03-17T03:27:06.452Z,42
2019-03-17T03:27:32.438Z,42
2019-03-17T03:27:58.436Z,42
2019-03-17T03:28:24.435Z,41
2019-03-17T03:28:50.446Z,42
2019-03-17T03:29:16.449Z,42
2019-03-17T03:29:42.453Z,42
2019-03-17T03:30:08.440Z,42
2019-03-17T03:30:34.459Z,42
2019-03-17T03:31:00.445Z,42
2019-03-17T03:31:26.458Z,42
2019-03-17T03:31:52.444Z,42
2019-03-17T03:32:18.442Z,42
2019-03-17T03:32:44.520Z,42
2019-03-17T03:33:10.455Z,42
2019-03-17T03:33:36.459Z,42
2019-03-17T03:34:02.447Z,42
2019-03-17T03:34:28.443Z,42
2019-03-17T03:34:54.449Z,42
2019-03-17T03:35:20.458Z,42
2019-03-17T03:35:46.521Z,42
2019-03-17T03:36:12.886Z,42
2019-03-17T03:36:38.446Z,42
2019-03-17T03:37:04.739Z,42
2019-03-17T03:37:30.446Z,42
2019-03-17T03:37:56.455Z,42
2019-03-17T03:38:22.464Z,43
2019-03-17T03:38:48.453Z,42
2019-03-17T03:39:14.465Z,42
2019-03-17T03:39:40.454Z,42
2019-03-17T03:40:06.468Z,43
2019-03-17T03:40:32.459Z,41
2019-03-17T03:40:58.461Z,42
2019-03-17T03:41:24.538Z,42
2019-03-17T03:41:50.469Z,42
2019-03-17T03:42:16.470Z,42
2019-03-17T03:42:42.458Z,42
2019-03-17T03:43:08.457Z,42
2019-03-17T03:43:34.458Z,42
2019-03-17T03:44:00.468Z,42
2019-03-17T03:44:26.542Z,42
2019-03-17T03:44:52.477Z,42
2019-03-17T03:45:18.460Z,43
2019-03-17T03:45:44.472Z,42
2019-03-17T03:46:10.466Z,42
2019-03-17T03:46:36.479Z,43
2019-03-17T03:47:02.460Z,42
2019-03-17T03:47:28.462Z,43
2019-03-17T03:47:54.478Z,43
2019-03-17T03:48:20.467Z,43
2019-03-17T03:48:46.479Z,43
2019-03-17T03:49:12.467Z,43
2019-03-17T03:49:38.470Z,43
2019-03-17T03:50:04.468Z,43
2019-03-17T03:50:30.484Z,43
2019-03-17T03:50:56.554Z,43
2019-03-17T03:51:22.486Z,43
2019-03-17T03:51:48.468Z,43
2019-03-17T03:52:14.486Z,43
2019-03-17T03:52:40.468Z,43
2019-03-17T03:53:06.725Z,43
2019-03-17T03:53:32.480Z,43
2019-03-17T03:53:58.567Z,43
2019-03-17T03:54:24.490Z,43
2019-03-17T03:54:50.478Z,43
2019-03-17T03:55:16.493Z,43
2019-03-17T03:55:42.478Z,43
2019-03-17T03:56:08.475Z,43
2019-03-17T03:56:34.496Z,43
2019-03-17T03:57:00.491Z,43
2019-03-17T03:57:26.499Z,43
2019-03-17T03:57:52.560Z,43
2019-03-17T03:58:18.478Z,43
2019-03-17T03:58:44.499Z,43
2019-03-17T03:59:10.482Z,43
2019-03-17T03:59:36.497Z,43
2019-03-17T04:00:02.482Z,43
2019-03-17T04:00:28.493Z,43
2019-03-17T04:00:54.500Z,43
2019-03-17T04:01:20.507Z,43
2019-03-17T04:01:46.496Z,43
2019-03-17T04:02:12.484Z,44
2019-03-17T04:02:38.486Z,44
2019-03-17T04:03:04.487Z,44
2019-03-17T04:03:30.487Z,44
2019-03-17T04:03:56.565Z,43
2019-03-17T04:04:22.502Z,44
2019-03-17T04:04:48.490Z,44
2019-03-17T04:05:14.503Z,44
2019-03-17T04:05:40.489Z,44
2019-03-17T04:06:06.514Z,44
2019-03-17T04:06:32.491Z,44
2019-03-17T04:06:58.497Z,44
2019-03-17T04:07:24.505Z,44
2019-03-17T04:07:50.572Z,44
2019-03-17T04:08:16.536Z,43
2019-03-17T04:08:42.511Z,44
2019-03-17T04:09:08.499Z,44
2019-03-17T04:09:34.626Z,44
2019-03-17T04:10:00.493Z,44
2019-03-17T04:10:26.502Z,44
2019-03-17T04:10:52.576Z,44
2019-03-17T04:11:18.498Z,44
2019-03-17T04:11:44.513Z,44
2019-03-17T04:12:10.497Z,44
2019-03-17T04:12:36.512Z,44
2019-03-17T04:13:02.503Z,44
2019-03-17T04:13:28.505Z,44
2019-03-17T04:13:54.508Z,44
2019-03-17T04:14:20.520Z,44
2019-03-17T04:14:46.581Z,44
2019-03-17T04:15:12.521Z,44
2019-03-17T04:15:38.503Z,44
2019-03-17T04:16:04.516Z,45
2019-03-17T04:16:30.504Z,44
2019-03-17T04:16:56.518Z,44
2019-03-17T04:17:22.513Z,44
2019-03-17T04:17:48.513Z,44
2019-03-17T04:18:14.598Z,44
2019-03-17T04:18:40.521Z,44
2019-03-17T04:19:06.555Z,44
2019-03-17T04:19:32.517Z,44
2019-03-17T04:19:58.511Z,44
2019-03-17T04:20:24.510Z,44
2019-03-17T04:20:50.515Z,44
2019-03-17T04:21:16.640Z,44
2019-03-17T04:21:42.525Z,44
2019-03-17T04:22:08.581Z,44
2019-03-17T04:22:34.533Z,44
2019-03-17T04:23:00.519Z,44
2019-03-17T04:23:26.527Z,44
2019-03-17T04:23:52.520Z,44
2019-03-17T04:24:18.514Z,44
2019-03-17T04:24:44.529Z,44
2019-03-17T04:25:10.581Z,44
2019-03-17T04:25:36.534Z,44
2019-03-17T04:26:02.533Z,44
2019-03-17T04:26:28.523Z,44
2019-03-17T04:26:54.539Z,44
2019-03-17T04:27:20.524Z,44
2019-03-17T04:27:46.542Z,44
2019-03-17T04:28:12.529Z,45
2019-03-17T04:28:38.523Z,44
2019-03-17T04:29:04.618Z,44
2019-03-17T04:29:31.023Z,44
2019-03-17T04:29:56.534Z,44
2019-03-17T04:30:22.524Z,45
2019-03-17T04:30:48.527Z,44
2019-03-17T04:31:14.529Z,45
2019-03-17T04:31:40.543Z,45
2019-03-17T04:32:06.557Z,45
2019-03-17T04:32:32.542Z,45
2019-03-17T04:32:58.528Z,45
2019-03-17T04:33:24.531Z,45
2019-03-17T04:33:50.535Z,45
2019-03-17T04:34:16.538Z,45
2019-03-17T04:34:42.608Z,45
2019-03-17T04:35:08.534Z,45
2019-03-17T04:35:34.547Z,45
2019-03-17T04:36:00.536Z,45
2019-03-17T04:36:26.547Z,45
2019-03-17T04:36:52.534Z,45
2019-03-17T04:37:18.543Z,45
2019-03-17T04:37:44.612Z,45
2019-03-17T04:38:10.554Z,45
2019-03-17T04:38:36.549Z,45
2019-03-17T04:39:02.551Z,45
2019-03-17T04:39:28.536Z,45
2019-03-17T04:39:54.552Z,44
2019-03-17T04:40:20.537Z,45
2019-03-17T04:40:46.538Z,45
2019-03-17T04:41:12.557Z,45
2019-03-17T04:41:38.608Z,45
2019-03-17T04:42:04.553Z,45
2019-03-17T04:42:30.539Z,45
2019-03-17T04:42:56.562Z,45
2019-03-17T04:43:22.549Z,45
2019-03-17T04:43:48.541Z,45
2019-03-17T04:44:14.545Z,45
2019-03-17T04:44:40.555Z,45
2019-03-17T04:45:06.560Z,45
2019-03-17T04:45:32.557Z,45
2019-03-17T04:45:58.550Z,45
2019-03-17T04:46:24.572Z,45
2019-03-17T04:46:50.551Z,45
2019-03-17T04:47:16.551Z,45
2019-03-17T04:47:42.561Z,45
2019-03-17T04:48:08.548Z,45
2019-03-17T04:48:34.567Z,45
2019-03-17T04:49:00.563Z,45
2019-03-17T04:49:26.566Z,45
2019-03-17T04:49:52.550Z,45
2019-03-17T04:50:18.551Z,45
2019-03-17T04:50:44.556Z,45
2019-03-17T04:51:10.568Z,45
2019-03-17T04:51:36.639Z,45
2019-03-17T04:52:02.571Z,45
2019-03-17T04:52:28.553Z,45
2019-03-17T04:52:54.575Z,45
2019-03-17T04:53:20.554Z,45
2019-03-17T04:53:46.572Z,45
2019-03-17T04:54:12.557Z,45
2019-03-17T04:54:38.560Z,45
2019-03-17T04:55:04.570Z,45
2019-03-17T04:55:30.641Z,45
2019-03-17T04:55:56.581Z,45
2019-03-17T04:56:22.580Z,45
2019-03-17T04:56:48.562Z,45
2019-03-17T04:57:14.562Z,45
2019-03-17T04:57:40.567Z,45
2019-03-17T04:58:06.580Z,45
2019-03-17T04:58:32.923Z,45
2019-03-17T04:58:58.565Z,45
2019-03-17T04:59:24.582Z,45
2019-03-17T04:59:50.568Z,45
2019-03-17T05:00:16.585Z,45
2019-03-17T05:00:42.570Z,45
2019-03-17T05:01:08.568Z,45
2019-03-17T05:01:34.643Z,45
2019-03-17T05:02:00.590Z,45
2019-03-17T05:02:26.588Z,45
2019-03-17T05:02:52.579Z,45
2019-03-17T05:03:18.572Z,45
2019-03-17T05:03:44.588Z,45
2019-03-17T05:04:10.573Z,46
2019-03-17T05:04:36.579Z,46
2019-03-17T05:05:02.615Z,45
2019-03-17T05:05:28.648Z,46
2019-03-17T05:05:54.589Z,46
2019-03-17T05:06:20.575Z,45
2019-03-17T05:06:46.596Z,46
2019-03-17T05:07:12.582Z,45
2019-03-17T05:07:38.582Z,45
2019-03-17T05:08:04.797Z,46
2019-03-17T05:08:30.921Z,46
2019-03-17T05:08:56.593Z,45
2019-03-17T05:09:22.576Z,46
2019-03-17T05:09:48.579Z,45
2019-03-17T05:10:14.583Z,46
2019-03-17T05:10:40.584Z,46
2019-03-17T05:11:06.590Z,45
2019-03-17T05:11:32.601Z,46
2019-03-17T05:11:58.585Z,46
2019-03-17T05:12:24.596Z,46
2019-03-17T05:12:50.581Z,46
2019-03-17T05:13:16.609Z,46
2019-03-17T05:13:42.587Z,46
2019-03-17T05:14:08.584Z,46
2019-03-17T05:14:34.604Z,46
2019-03-17T05:15:00.602Z,46
2019-03-17T05:15:26.603Z,46
2019-03-17T05:15:52.607Z,46
2019-03-17T05:16:18.637Z,46
2019-03-17T05:16:44.594Z,46
2019-03-17T05:17:10.587Z,46
2019-03-17T05:17:36.596Z,46
2019-03-17T05:18:02.782Z,46
2019-03-17T05:18:28.594Z,46
2019-03-17T05:18:54.616Z,46
2019-03-17T05:19:20.592Z,46
2019-03-17T05:19:46.609Z,46
2019-03-17T05:20:12.607Z,45
2019-03-17T05:20:38.595Z,46
2019-03-17T05:21:04.604Z,46
2019-03-17T05:21:30.677Z,46
2019-03-17T05:21:56.607Z,46
2019-03-17T05:22:22.617Z,46
2019-03-17T05:22:48.598Z,46
2019-03-17T05:23:14.614Z,46
2019-03-17T05:23:40.613Z,46
2019-03-17T05:24:06.608Z,46
2019-03-17T05:24:32.613Z,46
2019-03-17T05:24:58.601Z,46
2019-03-17T05:25:24.617Z,46
2019-03-17T05:25:50.607Z,46
2019-03-17T05:26:16.616Z,46
2019-03-17T05:26:42.601Z,46
2019-03-17T05:27:08.612Z,46
2019-03-17T05:27:34.619Z,46
2019-03-17T05:28:00.673Z,46
2019-03-17T05:28:26.622Z,46
2019-03-17T05:28:52.626Z,46
2019-03-17T05:29:18.625Z,46
2019-03-17T05:29:44.621Z,46
2019-03-17T05:30:10.608Z,46
2019-03-17T05:30:36.647Z,46
2019-03-17T05:31:02.610Z,46
2019-03-17T05:31:28.617Z,46
2019-03-17T05:31:54.628Z,46
2019-03-17T05:32:20.631Z,46
2019-03-17T05:32:46.627Z,46
2019-03-17T05:33:12.626Z,46
2019-03-17T05:33:38.611Z,46
2019-03-17T05:34:04.617Z,46
2019-03-17T05:34:30.624Z,46
2019-03-17T05:34:56.623Z,46
2019-03-17T05:35:22.637Z,46
2019-03-17T05:35:48.614Z,46
2019-03-17T05:36:14.628Z,46
2019-03-17T05:36:40.616Z,46
2019-03-17T05:37:06.631Z,46
2019-03-17T05:37:32.626Z,46
2019-03-17T05:37:58.627Z,46
2019-03-17T05:38:24.701Z,46
2019-03-17T05:38:50.637Z,46
2019-03-17T05:39:16.635Z,46
2019-03-17T05:39:42.626Z,46
2019-03-17T05:40:08.624Z,46
2019-03-17T05:40:34.620Z,46
2019-03-17T05:41:00.623Z,46
2019-03-17T05:41:26.631Z,46
2019-03-17T05:41:52.703Z,46
2019-03-17T05:42:18.628Z,46
2019-03-17T05:42:44.639Z,46
2019-03-17T05:43:10.627Z,46
2019-03-17T05:43:36.643Z,46
2019-03-17T05:44:02.628Z,47
2019-03-17T05:44:28.643Z,47
2019-03-17T05:44:54.642Z,46
2019-03-17T05:45:20.651Z,46
2019-03-17T05:45:46.648Z,47
2019-03-17T05:46:12.711Z,46
2019-03-17T05:46:38.633Z,46
2019-03-17T05:47:05.656Z,46
2019-03-17T05:47:30.713Z,47
2019-03-17T05:47:56.656Z,47
2019-03-17T05:48:22.633Z,47
2019-03-17T05:48:48.646Z,47
2019-03-17T05:49:14.650Z,47
2019-03-17T05:49:40.650Z,47
2019-03-17T05:50:06.653Z,47
2019-03-17T05:50:32.962Z,47
2019-03-17T05:50:58.641Z,47
2019-03-17T05:51:24.648Z,47
2019-03-17T05:51:50.654Z,47
2019-03-17T05:52:16.721Z,47
2019-03-17T05:52:42.658Z,47
2019-03-17T05:53:08.642Z,47
2019-03-17T05:53:34.657Z,47
2019-03-17T05:54:00.907Z,47
2019-03-17T05:54:26.662Z,47
2019-03-17T05:54:52.642Z,47
2019-03-17T05:55:18.652Z,47
2019-03-17T05:55:44.725Z,47
2019-03-17T05:56:10.685Z,47
2019-03-17T05:56:36.660Z,47
2019-03-17T05:57:02.646Z,47
2019-03-17T05:57:28.646Z,47
2019-03-17T05:57:54.825Z,47
2019-03-17T05:58:20.658Z,47
2019-03-17T05:58:46.727Z,47
2019-03-17T05:59:12.666Z,47
2019-03-17T05:59:38.650Z,47
2019-03-17T06:00:05.203Z,47
2019-03-17T06:00:30.650Z,47
2019-03-17T06:00:56.653Z,47
2019-03-17T06:01:22.665Z,47
2019-03-17T06:01:48.653Z,47
2019-03-17T06:02:14.672Z,47
2019-03-17T06:02:40.658Z,47
2019-03-17T06:03:06.673Z,47
2019-03-17T06:03:32.656Z,47
2019-03-17T06:03:58.661Z,47
2019-03-17T06:04:24.654Z,47
2019-03-17T06:04:50.949Z,47
2019-03-17T06:05:16.672Z,47
2019-03-17T06:05:42.740Z,47
2019-03-17T06:06:08.660Z,47
2019-03-17T06:06:34.811Z,47
2019-03-17T06:07:00.677Z,47
2019-03-17T06:07:26.679Z,47
2019-03-17T06:07:52.663Z,47
2019-03-17T06:08:18.671Z,47
2019-03-17T06:08:44.677Z,47
2019-03-17T06:09:10.677Z,47
2019-03-17T06:09:36.681Z,47
2019-03-17T06:10:02.677Z,47
2019-03-17T06:10:28.664Z,47
2019-03-17T06:10:54.671Z,47